Time;durP1;ratioP1;P1;durP2;ratioP2;P2;SDS_P1;SDS_P2;PMS_P1;PMS_P2;Temp;Humidity;BMP_temperature;BMP_pressure;BME280_temperature;BME280_humidity;BME280_pressure;Samples;Min_cycle;Max_cycle;Signal;HPM_P1;HPM_P2
2024/01/25 00:02:05;;;;;;;16.00;2.92;;;;;;;;;;5042608;28;21393;-66
2024/01/25 00:04:31;;;;;;;12.82;2.67;;;;;;;;;;5049746;28;20481;-66
2024/01/25 00:06:58;;;;;;;14.88;2.70;;;;;;;;;;5048443;28;20081;-66
2024/01/25 00:09:26;;;;;;;11.68;2.63;;;;;;;;;;5034300;28;20053;-66
2024/01/25 00:11:52;;;;;;;13.77;3.05;;;;;;;;;;5049143;28;20084;-66
2024/01/25 00:14:18;;;;;;;10.90;3.45;;;;;;;;;;5049352;28;20476;-66
2024/01/25 00:16:45;;;;;;;9.98;3.00;;;;;;;;;;5049224;28;20045;-66
2024/01/25 00:19:11;;;;;;;11.77;2.50;;;;;;;;;;5041210;28;20053;-66
2024/01/25 00:21:42;;;;;;;17.80;3.50;;;;;;;;;;5035914;28;20041;-66
2024/01/25 00:24:08;;;;;;;14.75;3.00;;;;;;;;;;5050010;28;20077;-66
2024/01/25 00:26:36;;;;;;;14.43;3.40;;;;;;;;;;5047404;28;20060;-66
2024/01/25 00:29:02;;;;;;;12.32;2.92;;;;;;;;;;5048730;28;20077;-66
2024/01/25 00:31:29;;;;;;;15.70;3.17;;;;;;;;;;5048947;28;20569;-66
2024/01/25 00:33:56;;;;;;;10.88;2.60;;;;;;;;;;5042351;28;20045;-66
2024/01/25 00:36:23;;;;;;;16.08;3.45;;;;;;;;;;5041918;28;20501;-66
2024/01/25 00:38:50;;;;;;;10.68;3.03;;;;;;;;;;5044957;28;20052;-66
2024/01/25 00:41:18;;;;;;;11.85;3.63;;;;;;;;;;5053004;28;20048;-66
2024/01/25 00:43:46;;;;;;;14.43;3.00;;;;;;;;;;5053201;28;20072;-66
2024/01/25 00:46:13;;;;;;;13.75;3.10;;;;;;;;;;5053141;28;20045;-66
2024/01/25 00:48:40;;;;;;;14.32;3.45;;;;;;;;;;5052631;28;20041;-66
2024/01/25 00:51:08;;;;;;;14.52;3.13;;;;;;;;;;5043150;28;20519;-66
2024/01/25 00:53:35;;;;;;;13.65;3.28;;;;;;;;;;5040787;28;20523;-66
2024/01/25 00:56:02;;;;;;;18.00;3.55;;;;;;;;;;5052255;28;20091;-66
2024/01/25 00:58:29;;;;;;;14.63;3.35;;;;;;;;;;5047614;28;20045;-66
2024/01/25 01:00:57;;;;;;;14.15;3.15;;;;;;;;;;5035318;28;20144;-66
2024/01/25 01:03:24;;;;;;;10.95;2.85;;;;;;;;;;5045545;28;20056;-66
2024/01/25 01:05:50;;;;;;;11.13;3.00;;;;;;;;;;5042818;28;20045;-66
2024/01/25 01:08:17;;;;;;;8.38;3.05;;;;;;;;;;5048844;28;20128;-66
2024/01/25 01:10:44;;;;;;;12.15;4.07;;;;;;;;;;5040851;28;20055;-66
2024/01/25 01:13:10;;;;;;;12.25;3.20;;;;;;;;;;5044843;28;20124;-67
2024/01/25 01:15:36;;;;;;;11.57;3.08;;;;;;;;;;5039252;28;20045;-66
2024/01/25 01:18:05;;;;;;;11.68;3.35;;;;;;;;;;5042852;28;20049;-66
2024/01/25 01:20:31;;;;;;;16.52;3.80;;;;;;;;;;5051354;28;20055;-66
2024/01/25 01:22:57;;;;;;;11.00;2.78;;;;;;;;;;5041264;28;20046;-66
2024/01/25 01:25:24;;;;;;;16.13;3.20;;;;;;;;;;5047351;28;20132;-66
2024/01/25 01:27:50;;;;;;;13.63;3.00;;;;;;;;;;5041795;28;20128;-66
2024/01/25 01:30:17;;;;;;;12.10;2.75;;;;;;;;;;5044444;28;20045;-66
2024/01/25 01:32:43;;;;;;;11.15;2.80;;;;;;;;;;5041239;28;20053;-66
2024/01/25 01:35:11;;;;;;;10.07;2.30;;;;;;;;;;5037544;28;20468;-66
2024/01/25 01:37:37;;;;;;;8.75;2.40;;;;;;;;;;5043498;28;20126;-66
2024/01/25 01:40:04;;;;;;;12.27;2.85;;;;;;;;;;5041064;28;20046;-66
2024/01/25 01:42:32;;;;;;;10.15;2.40;;;;;;;;;;5051873;28;20152;-66
2024/01/25 01:44:59;;;;;;;13.05;3.20;;;;;;;;;;5050362;28;20041;-66
2024/01/25 01:47:25;;;;;;;15.00;3.05;;;;;;;;;;5037168;28;20109;-66
2024/01/25 01:49:51;;;;;;;11.23;3.08;;;;;;;;;;5048960;28;20045;-66
2024/01/25 01:52:19;;;;;;;9.95;3.28;;;;;;;;;;5040811;28;20049;-66
2024/01/25 01:54:46;;;;;;;10.32;2.63;;;;;;;;;;5048894;28;20118;-66
2024/01/25 01:57:13;;;;;;;14.30;3.55;;;;;;;;;;5051248;28;20051;-66
2024/01/25 01:59:39;;;;;;;13.60;2.97;;;;;;;;;;5048744;28;20040;-66
2024/01/25 02:02:07;;;;;;;16.92;3.25;;;;;;;;;;5045033;28;20513;-66
2024/01/25 02:04:33;;;;;;;8.98;2.50;;;;;;;;;;5052088;28;20485;-66
2024/01/25 02:06:59;;;;;;;9.80;2.35;;;;;;;;;;5044577;28;20048;-66
2024/01/25 02:09:27;;;;;;;9.90;2.53;;;;;;;;;;5049143;28;20057;-66
2024/01/25 02:11:59;;;;;;;11.57;2.90;;;;;;;;;;5048773;28;20130;-66
2024/01/25 02:14:26;;;;;;;8.73;2.55;;;;;;;;;;5043981;28;20440;-66
2024/01/25 02:16:52;;;;;;;12.90;3.55;;;;;;;;;;5049069;28;20045;-66
2024/01/25 02:19:19;;;;;;;9.23;3.25;;;;;;;;;;5048871;28;20049;-66
2024/01/25 02:21:45;;;;;;;10.02;2.72;;;;;;;;;;5048028;28;20258;-66
2024/01/25 02:24:13;;;;;;;10.93;2.75;;;;;;;;;;5044496;28;20152;-66
2024/01/25 02:26:39;;;;;;;8.40;2.50;;;;;;;;;;5051054;28;20489;-66
2024/01/25 02:29:08;;;;;;;15.07;3.13;;;;;;;;;;5049213;28;20059;-66
2024/01/25 02:31:34;;;;;;;12.50;2.80;;;;;;;;;;5049546;28;20481;-66
2024/01/25 02:34:00;;;;;;;9.80;2.53;;;;;;;;;;5043471;28;20136;-66
2024/01/25 02:36:27;;;;;;;12.55;3.17;;;;;;;;;;5041761;28;20055;-66
2024/01/25 02:38:53;;;;;;;12.27;2.78;;;;;;;;;;5048305;28;20047;-66
2024/01/25 02:41:21;;;;;;;10.98;2.53;;;;;;;;;;5050056;28;20051;-66
2024/01/25 02:43:47;;;;;;;14.85;2.97;;;;;;;;;;5040492;28;20049;-66
2024/01/25 02:46:14;;;;;;;11.02;3.00;;;;;;;;;;5047694;28;20042;-66
2024/01/25 02:48:40;;;;;;;15.15;2.78;;;;;;;;;;5036088;28;20044;-66
2024/01/25 02:51:06;;;;;;;10.88;2.70;;;;;;;;;;5039533;28;20508;-66
2024/01/25 02:53:33;;;;;;;10.32;2.50;;;;;;;;;;5046687;28;20044;-66
2024/01/25 02:55:59;;;;;;;8.18;2.50;;;;;;;;;;5034683;28;20041;-66
2024/01/25 02:58:27;;;;;;;10.27;3.13;;;;;;;;;;5046600;28;20044;-66
2024/01/25 03:00:53;;;;;;;10.13;3.20;;;;;;;;;;5038925;28;20045;-66
2024/01/25 03:03:20;;;;;;;10.38;2.85;;;;;;;;;;5036356;28;20049;-66
2024/01/25 03:05:46;;;;;;;11.65;3.80;;;;;;;;;;5047328;28;20560;-66
2024/01/25 03:08:13;;;;;;;11.02;2.92;;;;;;;;;;5042883;28;20041;-66
2024/01/25 03:10:39;;;;;;;11.75;3.08;;;;;;;;;;5050384;28;20418;-66
2024/01/25 03:13:05;;;;;;;8.02;2.90;;;;;;;;;;5050049;28;20139;-66
2024/01/25 03:15:33;;;;;;;9.68;2.75;;;;;;;;;;5050413;28;20045;-65
2024/01/25 03:17:59;;;;;;;9.30;2.95;;;;;;;;;;5045766;28;20128;-66
2024/01/25 03:20:26;;;;;;;11.48;3.20;;;;;;;;;;5036063;28;20061;-66
2024/01/25 03:22:52;;;;;;;13.02;2.53;;;;;;;;;;5047038;28;20051;-66
2024/01/25 03:25:18;;;;;;;8.02;2.53;;;;;;;;;;5047118;28;20045;-66
2024/01/25 03:27:45;;;;;;;11.60;2.92;;;;;;;;;;5039127;28;20061;-65
2024/01/25 03:30:12;;;;;;;6.63;2.25;;;;;;;;;;5049013;28;20055;-65
2024/01/25 03:32:39;;;;;;;4.55;2.17;;;;;;;;;;5041252;28;20071;-66
2024/01/25 03:35:06;;;;;;;9.70;2.80;;;;;;;;;;5039180;28;20059;-66
2024/01/25 03:37:33;;;;;;;6.15;2.30;;;;;;;;;;5049306;28;20053;-66
2024/01/25 03:39:59;;;;;;;6.68;2.20;;;;;;;;;;5046214;28;20135;-66
2024/01/25 03:42:25;;;;;;;11.27;2.63;;;;;;;;;;5049110;28;20044;-66
2024/01/25 03:44:52;;;;;;;12.82;2.85;;;;;;;;;;5048898;28;20154;-66
2024/01/25 03:47:19;;;;;;;8.55;2.58;;;;;;;;;;5040951;28;20149;-67
2024/01/25 03:49:46;;;;;;;11.07;2.42;;;;;;;;;;5035592;28;20140;-66
2024/01/25 03:52:13;;;;;;;6.75;2.35;;;;;;;;;;5041692;28;20147;-66
2024/01/25 03:54:39;;;;;;;8.35;2.25;;;;;;;;;;5050731;28;20067;-66
2024/01/25 03:57:06;;;;;;;10.27;3.00;;;;;;;;;;5042490;28;20055;-66
2024/01/25 03:59:32;;;;;;;7.65;2.10;;;;;;;;;;5047312;28;20059;-66
2024/01/25 04:01:58;;;;;;;14.60;2.22;;;;;;;;;;5041622;28;20041;-66
2024/01/25 04:04:25;;;;;;;9.95;2.60;;;;;;;;;;5042513;28;20075;-66
2024/01/25 04:06:53;;;;;;;9.77;2.50;;;;;;;;;;5046443;28;20091;-66
2024/01/25 04:09:19;;;;;;;12.57;2.70;;;;;;;;;;5041979;28;20092;-66
2024/01/25 04:11:45;;;;;;;11.73;2.88;;;;;;;;;;5040003;28;20076;-65
2024/01/25 04:14:12;;;;;;;7.93;2.17;;;;;;;;;;5054021;28;20138;-66
2024/01/25 04:16:39;;;;;;;11.10;2.30;;;;;;;;;;5041861;28;20124;-66
2024/01/25 04:19:05;;;;;;;10.13;2.88;;;;;;;;;;5043148;28;20405;-66
2024/01/25 04:21:32;;;;;;;14.23;3.00;;;;;;;;;;5056090;28;20044;-66
2024/01/25 04:23:59;;;;;;;10.57;2.70;;;;;;;;;;5043448;28;20134;-66
2024/01/25 04:26:26;;;;;;;11.02;3.85;;;;;;;;;;5054234;28;20055;-66
2024/01/25 04:28:52;;;;;;;9.93;2.85;;;;;;;;;;5051229;28;20040;-65
2024/01/25 04:31:19;;;;;;;13.73;4.03;;;;;;;;;;5043174;28;20483;-66
2024/01/25 04:33:45;;;;;;;8.88;2.85;;;;;;;;;;5050198;28;20049;-66
2024/01/25 04:36:12;;;;;;;8.95;3.03;;;;;;;;;;5042877;28;20144;-66
2024/01/25 04:38:38;;;;;;;11.90;3.40;;;;;;;;;;5053696;28;20047;-66
2024/01/25 04:41:06;;;;;;;11.52;2.75;;;;;;;;;;5052549;28;20416;-66
2024/01/25 04:43:35;;;;;;;14.30;3.85;;;;;;;;;;5044646;28;20417;-66
2024/01/25 04:46:01;;;;;;;13.65;3.08;;;;;;;;;;5050361;28;20048;-66
2024/01/25 04:48:29;;;;;;;14.00;4.00;;;;;;;;;;5050216;28;20055;-66
2024/01/25 04:50:56;;;;;;;8.82;3.10;;;;;;;;;;5052379;28;20501;-66
2024/01/25 04:53:23;;;;;;;10.90;3.22;;;;;;;;;;5047318;28;20045;-67
2024/01/25 04:55:49;;;;;;;12.27;3.22;;;;;;;;;;5049197;28;20049;-68
2024/01/25 04:58:17;;;;;;;16.10;4.32;;;;;;;;;;5052086;28;20044;-67
2024/01/25 05:00:43;;;;;;;10.35;3.67;;;;;;;;;;5049486;28;20416;-68
2024/01/25 05:03:10;;;;;;;12.57;3.10;;;;;;;;;;5045857;28;20064;-67
2024/01/25 05:05:36;;;;;;;10.38;2.90;;;;;;;;;;5052533;28;20045;-67
2024/01/25 05:08:02;;;;;;;9.45;3.38;;;;;;;;;;5047601;28;20047;-68
2024/01/25 05:10:29;;;;;;;10.02;2.28;;;;;;;;;;5052264;28;20479;-68
2024/01/25 05:12:55;;;;;;;9.10;2.80;;;;;;;;;;5051297;28;20049;-68
2024/01/25 05:15:23;;;;;;;14.93;3.53;;;;;;;;;;5052442;28;20548;-67
2024/01/25 05:17:49;;;;;;;13.40;4.68;;;;;;;;;;5044881;28;20131;-67
2024/01/25 05:20:17;;;;;;;12.75;3.92;;;;;;;;;;5052106;28;20045;-67
2024/01/25 05:22:44;;;;;;;15.55;3.38;;;;;;;;;;5052491;28;20099;-67
2024/01/25 05:25:10;;;;;;;16.70;3.75;;;;;;;;;;5045457;28;20168;-67
2024/01/25 05:27:36;;;;;;;10.23;3.65;;;;;;;;;;5045975;28;20447;-67
2024/01/25 05:30:04;;;;;;;6.35;3.03;;;;;;;;;;5039791;28;20053;-68
2024/01/25 05:32:32;;;;;;;13.43;3.13;;;;;;;;;;5037734;28;20164;-67
2024/01/25 05:34:58;;;;;;;10.52;3.13;;;;;;;;;;5049893;28;20063;-67
2024/01/25 05:37:25;;;;;;;15.35;3.97;;;;;;;;;;5041056;28;20441;-67
2024/01/25 05:39:51;;;;;;;11.00;3.47;;;;;;;;;;5041138;28;20055;-67
2024/01/25 05:42:18;;;;;;;9.68;2.95;;;;;;;;;;5044867;28;20048;-67
2024/01/25 05:44:44;;;;;;;10.02;3.67;;;;;;;;;;5051646;28;20084;-67
2024/01/25 05:47:10;;;;;;;12.27;3.47;;;;;;;;;;5050102;28;20042;-67
2024/01/25 05:49:38;;;;;;;10.48;3.10;;;;;;;;;;5044201;28;20052;-67
2024/01/25 05:52:05;;;;;;;11.85;3.05;;;;;;;;;;5043363;28;20052;-67
2024/01/25 05:54:31;;;;;;;10.30;3.40;;;;;;;;;;5052399;28;20610;-67
2024/01/25 05:56:57;;;;;;;21.25;3.40;;;;;;;;;;5051620;28;20041;-68
2024/01/25 05:59:24;;;;;;;6.93;3.08;;;;;;;;;;5044775;28;20055;-67
2024/01/25 06:01:50;;;;;;;12.48;3.38;;;;;;;;;;5052110;28;20044;-67
2024/01/25 06:04:17;;;;;;;13.10;3.95;;;;;;;;;;5041321;28;20051;-68
2024/01/25 06:06:45;;;;;;;13.35;3.17;;;;;;;;;;5041198;28;20051;-67
2024/01/25 06:09:11;;;;;;;12.07;4.10;;;;;;;;;;5043142;28;20050;-67
2024/01/25 06:11:37;;;;;;;10.93;3.00;;;;;;;;;;5044451;28;20054;-67
2024/01/25 06:14:04;;;;;;;9.73;3.03;;;;;;;;;;5050540;28;20106;-68
2024/01/25 06:16:31;;;;;;;16.60;3.85;;;;;;;;;;5045798;28;20046;-67
2024/01/25 06:18:58;;;;;;;10.82;3.38;;;;;;;;;;5045682;28;20040;-67
2024/01/25 06:21:24;;;;;;;8.38;3.45;;;;;;;;;;5043974;28;20056;-67
2024/01/25 06:23:52;;;;;;;13.82;3.90;;;;;;;;;;5042687;28;20048;-67
2024/01/25 06:26:19;;;;;;;11.05;3.78;;;;;;;;;;5046831;28;20132;-67
2024/01/25 06:28:45;;;;;;;11.90;3.60;;;;;;;;;;5050203;28;20059;-67
2024/01/25 06:31:11;;;;;;;13.60;4.00;;;;;;;;;;5049973;28;20150;-67
2024/01/25 06:33:38;;;;;;;11.75;3.50;;;;;;;;;;5050469;28;20041;-67
2024/01/25 06:36:05;;;;;;;12.27;3.17;;;;;;;;;;5050415;28;20044;-67
2024/01/25 06:38:31;;;;;;;10.07;2.92;;;;;;;;;;5039432;28;20080;-66
2024/01/25 06:40:59;;;;;;;8.10;3.45;;;;;;;;;;5047808;28;20493;-67
2024/01/25 06:43:25;;;;;;;8.82;3.40;;;;;;;;;;5051497;28;20051;-67
2024/01/25 06:45:51;;;;;;;10.63;3.28;;;;;;;;;;5036095;28;20049;-67
2024/01/25 06:48:18;;;;;;;14.57;4.07;;;;;;;;;;5049157;28;20051;-67
2024/01/25 06:50:44;;;;;;;12.43;3.95;;;;;;;;;;5050521;28;20053;-67
2024/01/25 06:53:10;;;;;;;9.07;3.42;;;;;;;;;;5035927;28;20041;-66
2024/01/25 06:55:37;;;;;;;10.27;3.70;;;;;;;;;;5045109;28;20414;-67
2024/01/25 06:58:05;;;;;;;9.65;3.50;;;;;;;;;;5045412;28;20048;-67
2024/01/25 07:00:31;;;;;;;8.75;3.17;;;;;;;;;;5042699;28;20049;-67
2024/01/25 07:02:57;;;;;;;11.32;3.55;;;;;;;;;;5049241;28;20562;-67
2024/01/25 07:05:24;;;;;;;12.68;3.83;;;;;;;;;;5044661;28;20052;-67
2024/01/25 07:07:51;;;;;;;10.95;4.97;;;;;;;;;;5046003;28;20052;-67
2024/01/25 07:10:17;;;;;;;18.20;4.88;;;;;;;;;;5043789;28;20045;-67
2024/01/25 07:12:43;;;;;;;15.63;4.68;;;;;;;;;;5039216;28;20041;-67
2024/01/25 07:15:11;;;;;;;12.50;4.15;;;;;;;;;;5047629;28;20071;-66
2024/01/25 07:17:38;;;;;;;7.88;3.67;;;;;;;;;;5041772;28;20048;-67
2024/01/25 07:20:06;;;;;;;14.70;3.47;;;;;;;;;;5039344;28;20052;-67
2024/01/25 07:22:32;;;;;;;12.90;4.38;;;;;;;;;;5046535;28;20060;-66
2024/01/25 07:24:58;;;;;;;10.93;3.25;;;;;;;;;;5044702;28;20490;-66
2024/01/25 07:27:25;;;;;;;13.57;3.30;;;;;;;;;;5043685;28;20048;-67
2024/01/25 07:29:51;;;;;;;11.07;4.25;;;;;;;;;;5041434;28;20045;-66
2024/01/25 07:32:19;;;;;;;9.55;3.65;;;;;;;;;;5049198;28;20135;-67
2024/01/25 07:34:46;;;;;;;10.13;3.38;;;;;;;;;;5049908;28;20052;-67
2024/01/25 07:37:12;;;;;;;11.75;4.00;;;;;;;;;;5039811;28;20041;-66
2024/01/25 07:39:38;;;;;;;9.27;2.97;;;;;;;;;;5044499;28;20680;-67
2024/01/25 07:42:05;;;;;;;11.38;3.63;;;;;;;;;;5038592;28;20416;-66
2024/01/25 07:44:31;;;;;;;11.07;3.80;;;;;;;;;;5047054;28;20134;-66
2024/01/25 07:46:58;;;;;;;12.23;4.00;;;;;;;;;;5035112;28;20045;-67
2024/01/25 07:49:26;;;;;;;8.68;3.10;;;;;;;;;;5052516;28;20045;-67
2024/01/25 07:51:53;;;;;;;7.57;3.08;;;;;;;;;;5054464;28;20045;-67
2024/01/25 07:54:19;;;;;;;12.68;4.18;;;;;;;;;;5049828;28;20041;-66
2024/01/25 07:56:45;;;;;;;22.73;4.40;;;;;;;;;;5054428;28;20144;-66
2024/01/25 07:59:12;;;;;;;17.90;6.10;;;;;;;;;;5049409;28;20045;-66
2024/01/25 08:01:38;;;;;;;11.98;3.38;;;;;;;;;;5049253;28;20045;-67
2024/01/25 08:04:05;;;;;;;10.45;3.70;;;;;;;;;;5044406;28;20098;-67
2024/01/25 08:06:32;;;;;;;13.38;3.40;;;;;;;;;;5047497;28;20052;-67
2024/01/25 08:08:59;;;;;;;11.35;3.85;;;;;;;;;;5048263;28;20045;-67
2024/01/25 08:11:25;;;;;;;16.13;3.30;;;;;;;;;;5041080;28;20394;-67
2024/01/25 08:13:52;;;;;;;17.88;4.60;;;;;;;;;;5049188;28;20084;-67
2024/01/25 08:16:19;;;;;;;14.15;3.47;;;;;;;;;;5038718;28;20041;-67
2024/01/25 08:18:45;;;;;;;11.10;4.00;;;;;;;;;;5050337;28;20464;-67
2024/01/25 08:21:12;;;;;;;16.38;4.85;;;;;;;;;;5049643;28;20409;-67
2024/01/25 08:23:40;;;;;;;13.43;4.25;;;;;;;;;;5051061;28;20057;-67
2024/01/25 08:26:09;;;;;;;10.23;4.03;;;;;;;;;;5051665;28;20056;-67
2024/01/25 08:28:35;;;;;;;10.15;3.75;;;;;;;;;;5051336;28;20507;-67
2024/01/25 08:31:02;;;;;;;12.45;3.42;;;;;;;;;;5049703;28;20057;-67
2024/01/25 08:33:28;;;;;;;17.25;4.38;;;;;;;;;;5038667;28;20040;-67
2024/01/25 08:35:55;;;;;;;13.30;4.95;;;;;;;;;;5045083;28;20055;-67
2024/01/25 08:38:21;;;;;;;10.85;5.00;;;;;;;;;;5040843;28;20418;-69
2024/01/25 08:40:49;;;;;;;13.00;4.85;;;;;;;;;;5037234;28;20052;-68
2024/01/25 08:43:15;;;;;;;9.50;4.70;;;;;;;;;;5038277;28;20049;-67
2024/01/25 08:45:42;;;;;;;11.55;4.55;;;;;;;;;;5048534;28;20045;-67
2024/01/25 08:48:09;;;;;;;11.32;4.70;;;;;;;;;;5045154;28;20556;-67
2024/01/25 08:50:35;;;;;;;12.10;4.65;;;;;;;;;;5050510;28;20052;-66
2024/01/25 08:53:02;;;;;;;13.68;5.35;;;;;;;;;;5043565;28;20057;-67
2024/01/25 08:55:29;;;;;;;12.27;5.20;;;;;;;;;;5052215;28;20053;-67
2024/01/25 08:57:56;;;;;;;23.65;5.80;;;;;;;;;;5042902;28;20417;-69
2024/01/25 09:00:23;;;;;;;11.73;4.63;;;;;;;;;;5037549;28;20048;-69
2024/01/25 09:02:49;;;;;;;15.50;4.65;;;;;;;;;;5034928;28;20041;-69
2024/01/25 09:05:16;;;;;;;17.40;5.35;;;;;;;;;;5046648;28;20045;-71
2024/01/25 09:07:42;;;;;;;16.42;5.88;;;;;;;;;;5046715;28;20505;-69
2024/01/25 09:10:09;;;;;;;20.48;5.00;;;;;;;;;;5047557;28;20053;-69
2024/01/25 09:12:36;;;;;;;17.08;4.90;;;;;;;;;;5052637;28;20055;-68
2024/01/25 09:15:04;;;;;;;14.45;4.93;;;;;;;;;;5052067;28;20059;-69
2024/01/25 09:17:30;;;;;;;16.05;5.03;;;;;;;;;;5049284;28;20527;-69
2024/01/25 09:19:58;;;;;;;20.77;5.47;;;;;;;;;;5046355;28;20071;-70
2024/01/25 09:22:25;;;;;;;22.83;5.50;;;;;;;;;;5044589;28;20113;-70
2024/01/25 09:24:51;;;;;;;19.77;6.68;;;;;;;;;;5041688;28;20049;-70
2024/01/25 09:27:18;;;;;;;16.58;6.07;;;;;;;;;;5052080;28;20045;-69
2024/01/25 09:29:44;;;;;;;15.60;5.00;;;;;;;;;;5044923;28;20051;-70
2024/01/25 09:32:12;;;;;;;17.60;5.97;;;;;;;;;;5041490;28;20060;-69
2024/01/25 09:34:39;;;;;;;19.33;5.53;;;;;;;;;;5045766;28;20114;-70
2024/01/25 09:37:05;;;;;;;17.60;4.90;;;;;;;;;;5049206;28;20090;-70
2024/01/25 09:39:32;;;;;;;20.50;5.40;;;;;;;;;;5042752;28;20073;-69
2024/01/25 09:41:59;;;;;;;13.77;4.72;;;;;;;;;;5043793;28;20049;-69
2024/01/25 09:44:25;;;;;;;17.92;4.38;;;;;;;;;;5044085;28;20041;-71
2024/01/25 09:46:52;;;;;;;16.23;5.20;;;;;;;;;;5048110;28;20051;-69
2024/01/25 09:49:19;;;;;;;20.38;5.43;;;;;;;;;;5043491;28;20159;-71
2024/01/25 09:51:46;;;;;;;16.60;5.72;;;;;;;;;;5044179;28;20061;-69
2024/01/25 09:54:13;;;;;;;19.08;5.30;;;;;;;;;;5044316;28;20051;-69
2024/01/25 09:56:41;;;;;;;20.50;5.35;;;;;;;;;;5038859;28;20049;-70
2024/01/25 09:59:08;;;;;;;19.80;6.57;;;;;;;;;;5049444;28;20415;-69
2024/01/25 10:01:35;;;;;;;23.98;5.50;;;;;;;;;;5040544;28;20052;-70
2024/01/25 10:04:01;;;;;;;18.15;5.70;;;;;;;;;;5043498;28;20140;-70
2024/01/25 10:06:29;;;;;;;21.88;5.40;;;;;;;;;;5040659;28;20049;-69
2024/01/25 10:08:56;;;;;;;13.85;4.18;;;;;;;;;;5040172;28;20586;-70
2024/01/25 10:11:24;;;;;;;20.42;4.85;;;;;;;;;;5044802;28;20077;-69
2024/01/25 10:13:52;;;;;;;20.88;6.03;;;;;;;;;;5048244;28;20470;-69
2024/01/25 10:16:19;;;;;;;21.48;5.95;;;;;;;;;;5043801;28;20049;-68
2024/01/25 10:18:47;;;;;;;18.50;4.75;;;;;;;;;;5035990;28;20132;-70
2024/01/25 10:21:14;;;;;;;26.05;6.15;;;;;;;;;;5050203;28;20057;-70
2024/01/25 10:23:44;;;;;;;17.20;4.65;;;;;;;;;;5049179;28;20135;-69
2024/01/25 10:26:10;;;;;;;18.58;4.85;;;;;;;;;;5048102;28;20051;-69
2024/01/25 10:28:37;;;;;;;16.20;4.40;;;;;;;;;;5043457;28;20051;-69
2024/01/25 10:31:04;;;;;;;27.67;5.70;;;;;;;;;;5042625;28;20060;-67
2024/01/25 10:33:31;;;;;;;17.10;5.15;;;;;;;;;;5045304;28;20069;-68
2024/01/25 10:36:01;;;;;;;20.80;4.97;;;;;;;;;;5033649;28;20366;-68
2024/01/25 10:38:29;;;;;;;12.90;4.80;;;;;;;;;;5034436;28;20052;-68
2024/01/25 10:40:58;;;;;;;20.27;4.25;;;;;;;;;;5039853;28;20490;-67
2024/01/25 10:43:25;;;;;;;19.60;5.03;;;;;;;;;;5041816;28;20099;-67
2024/01/25 10:45:55;;;;;;;23.10;5.05;;;;;;;;;;5041895;28;20493;-67
2024/01/25 10:48:22;;;;;;;14.82;4.28;;;;;;;;;;5048687;28;20068;-67
2024/01/25 10:50:48;;;;;;;13.70;3.78;;;;;;;;;;5047346;28;20055;-68
2024/01/25 10:53:16;;;;;;;16.02;3.35;;;;;;;;;;5044899;28;20053;-68
2024/01/25 10:55:42;;;;;;;21.33;3.80;;;;;;;;;;5045044;28;20068;-68
2024/01/25 10:58:13;;;;;;;14.13;3.97;;;;;;;;;;5043631;28;20063;-68
2024/01/25 11:00:39;;;;;;;17.67;4.05;;;;;;;;;;5034309;28;20468;-67
2024/01/25 11:03:06;;;;;;;16.00;3.70;;;;;;;;;;5048253;28;20059;-68
2024/01/25 11:05:33;;;;;;;15.77;4.13;;;;;;;;;;5043874;28;20523;-68
2024/01/25 11:07:59;;;;;;;19.83;3.85;;;;;;;;;;5038220;28;20045;-67
2024/01/25 11:10:27;;;;;;;8.65;3.08;;;;;;;;;;5042679;28;20508;-68
2024/01/25 11:12:56;;;;;;;18.67;3.75;;;;;;;;;;5046420;28;20049;-67
2024/01/25 11:15:24;;;;;;;14.30;3.35;;;;;;;;;;5046098;28;20045;-67
2024/01/25 11:17:57;;;;;;;19.23;4.53;;;;;;;;;;5042032;28;20045;-68
2024/01/25 11:20:24;;;;;;;19.23;3.80;;;;;;;;;;5046033;28;20099;-68
2024/01/25 11:22:55;;;;;;;20.55;3.95;;;;;;;;;;5050075;28;20106;-68
2024/01/25 11:25:21;;;;;;;18.13;3.78;;;;;;;;;;5050282;28;20049;-69
2024/01/25 11:27:49;;;;;;;15.13;4.20;;;;;;;;;;5049194;28;20051;-68
2024/01/25 11:30:15;;;;;;;13.00;4.53;;;;;;;;;;5049399;28;20045;-68
2024/01/25 11:32:44;;;;;;;17.25;3.22;;;;;;;;;;5043732;28;20428;-67
2024/01/25 11:35:13;;;;;;;14.02;3.47;;;;;;;;;;5048286;28;20048;-68
2024/01/25 11:37:39;;;;;;;15.25;3.65;;;;;;;;;;5049605;28;20118;-67
2024/01/25 11:40:06;;;;;;;18.70;4.47;;;;;;;;;;5048467;28;20132;-68
2024/01/25 11:42:33;;;;;;;16.98;3.20;;;;;;;;;;5041704;28;20041;-67
2024/01/25 11:44:59;;;;;;;11.98;3.00;;;;;;;;;;5040169;28;20517;-68
2024/01/25 11:47:26;;;;;;;18.40;3.97;;;;;;;;;;5043103;28;20051;-69
2024/01/25 11:49:54;;;;;;;15.93;3.50;;;;;;;;;;5048142;28;20045;-67
2024/01/25 11:52:20;;;;;;;12.18;3.33;;;;;;;;;;5045731;28;20052;-68
2024/01/25 11:54:46;;;;;;;18.50;4.10;;;;;;;;;;5047312;28;20085;-68
2024/01/25 11:57:13;;;;;;;21.52;4.05;;;;;;;;;;5048580;28;20132;-70
2024/01/25 11:59:39;;;;;;;13.88;3.30;;;;;;;;;;5042984;28;20068;-68
2024/01/25 12:02:06;;;;;;;17.13;3.90;;;;;;;;;;5048654;28;20044;-69
2024/01/25 12:04:32;;;;;;;18.35;3.50;;;;;;;;;;5050172;28;20055;-68
2024/01/25 12:07:00;;;;;;;16.95;4.03;;;;;;;;;;5049884;28;20503;-68
2024/01/25 12:09:27;;;;;;;17.85;3.65;;;;;;;;;;5037194;28;20041;-69
2024/01/25 12:11:53;;;;;;;19.77;4.35;;;;;;;;;;5038068;28;20045;-68
2024/01/25 12:14:19;;;;;;;14.57;3.45;;;;;;;;;;5046040;28;20412;-68
2024/01/25 12:16:46;;;;;;;16.73;3.50;;;;;;;;;;5042768;28;20080;-68
2024/01/25 12:19:12;;;;;;;15.13;3.80;;;;;;;;;;5032524;28;20235;-69
2024/01/25 12:21:38;;;;;;;21.67;4.05;;;;;;;;;;5038415;28;20041;-69
2024/01/25 12:24:08;;;;;;;21.10;3.63;;;;;;;;;;5041369;28;20407;-68
2024/01/25 12:26:35;;;;;;;15.98;3.83;;;;;;;;;;5046691;28;20144;-68
2024/01/25 12:29:02;;;;;;;13.68;3.47;;;;;;;;;;5040492;28;20053;-67
2024/01/25 12:31:29;;;;;;;16.27;3.72;;;;;;;;;;5037763;28;20513;-68
2024/01/25 12:33:55;;;;;;;15.30;4.03;;;;;;;;;;5033928;28;20045;-68
2024/01/25 12:36:22;;;;;;;21.48;3.83;;;;;;;;;;5039093;28;20045;-68
2024/01/25 12:38:48;;;;;;;16.38;3.38;;;;;;;;;;5045508;28;20486;-68
2024/01/25 12:41:16;;;;;;;16.33;3.80;;;;;;;;;;5048627;28;20414;-68
2024/01/25 12:43:43;;;;;;;14.38;3.08;;;;;;;;;;5048365;28;20051;-68
2024/01/25 12:46:09;;;;;;;13.13;3.90;;;;;;;;;;5043638;28;20057;-68
2024/01/25 12:48:35;;;;;;;13.50;3.10;;;;;;;;;;5040633;28;20073;-68
2024/01/25 12:51:02;;;;;;;15.38;3.40;;;;;;;;;;5049389;28;20429;-68
2024/01/25 12:53:28;;;;;;;13.75;2.80;;;;;;;;;;5046979;28;20053;-68
2024/01/25 12:55:55;;;;;;;11.52;3.38;;;;;;;;;;5042906;28;20041;-68
2024/01/25 12:58:22;;;;;;;14.93;3.35;;;;;;;;;;5046390;28;20051;-68
2024/01/25 13:00:49;;;;;;;24.58;4.00;;;;;;;;;;5043919;28;20140;-69
2024/01/25 13:03:15;;;;;;;11.70;3.03;;;;;;;;;;5051150;28;20052;-68
2024/01/25 13:05:42;;;;;;;17.35;2.95;;;;;;;;;;5044479;28;20052;-69
2024/01/25 13:08:08;;;;;;;12.85;2.65;;;;;;;;;;5043049;28;20562;-68
2024/01/25 13:10:34;;;;;;;16.00;3.53;;;;;;;;;;5051753;28;20045;-68
2024/01/25 13:13:01;;;;;;;16.77;3.47;;;;;;;;;;5052220;28;20053;-70
2024/01/25 13:15:29;;;;;;;13.57;3.47;;;;;;;;;;5050965;28;20061;-70
2024/01/25 13:17:55;;;;;;;15.35;3.15;;;;;;;;;;5044604;28;20049;-68
2024/01/25 13:20:21;;;;;;;11.27;3.03;;;;;;;;;;5051834;28;20055;-68
2024/01/25 13:22:48;;;;;;;12.50;3.33;;;;;;;;;;5044579;28;20049;-68
2024/01/25 13:25:14;;;;;;;12.35;3.40;;;;;;;;;;5051104;28;20059;-69
2024/01/25 13:27:41;;;;;;;15.43;3.92;;;;;;;;;;5041232;28;20048;-68
2024/01/25 13:30:11;;;;;;;13.68;3.67;;;;;;;;;;5035309;28;20088;-69
2024/01/25 13:32:39;;;;;;;14.52;3.40;;;;;;;;;;5043042;28;20045;-69
2024/01/25 13:35:05;;;;;;;10.20;3.15;;;;;;;;;;5040584;28;20402;-68
2024/01/25 13:37:32;;;;;;;14.63;3.05;;;;;;;;;;5045296;28;20123;-68
2024/01/25 13:39:58;;;;;;;10.45;2.65;;;;;;;;;;5042331;28;20041;-70
2024/01/25 13:42:24;;;;;;;9.57;2.72;;;;;;;;;;5036306;28;20067;-69
2024/01/25 13:44:51;;;;;;;12.98;3.10;;;;;;;;;;5051208;28;20041;-69
2024/01/25 13:47:17;;;;;;;8.55;2.60;;;;;;;;;;5043303;28;20493;-68
2024/01/25 13:49:45;;;;;;;11.65;2.78;;;;;;;;;;5043893;28;20045;-67
2024/01/25 13:52:17;;;;;;;12.30;2.95;;;;;;;;;;5044172;28;20040;-68
2024/01/25 13:54:44;;;;;;;10.00;3.08;;;;;;;;;;5051879;28;20051;-67
2024/01/25 13:57:10;;;;;;;10.13;4.18;;;;;;;;;;5042864;28;20049;-67
2024/01/25 13:59:36;;;;;;;7.25;3.25;;;;;;;;;;5049058;28;20049;-69
2024/01/25 14:02:03;;;;;;;10.45;3.15;;;;;;;;;;5051720;28;20573;-69
2024/01/25 14:04:30;;;;;;;9.52;3.85;;;;;;;;;;5051649;28;20044;-69
2024/01/25 14:06:58;;;;;;;11.25;2.90;;;;;;;;;;5043177;28;20230;-69
2024/01/25 14:09:24;;;;;;;9.98;3.08;;;;;;;;;;5046553;28;20100;-69
2024/01/25 14:11:51;;;;;;;16.13;3.65;;;;;;;;;;5037008;28;20141;-69
2024/01/25 14:14:17;;;;;;;10.80;3.28;;;;;;;;;;5041981;28;20132;-70
2024/01/25 14:16:43;;;;;;;9.93;3.38;;;;;;;;;;5036883;28;20045;-69
2024/01/25 14:19:10;;;;;;;15.10;4.10;;;;;;;;;;5047822;28;20072;-68
2024/01/25 14:21:36;;;;;;;12.10;3.72;;;;;;;;;;5039780;28;20482;-69
2024/01/25 14:24:04;;;;;;;10.27;3.28;;;;;;;;;;5041002;28;20052;-69
2024/01/25 14:26:30;;;;;;;17.80;3.60;;;;;;;;;;5045465;28;20524;-69
2024/01/25 14:28:57;;;;;;;12.25;3.78;;;;;;;;;;5042769;28;20055;-69